sensor_id;sensor_type;location;lat;lon;timestamp;pressure;altitude;pressure_sealevel;temperature;humidity
63907;BME280;50075;49.484;11.238;2024-03-07T00:01:09;98496.03;;;4.79;100.00
63907;BME280;50075;49.484;11.238;2024-03-07T00:03:34;98495.94;;;4.75;100.00
63907;BME280;50075;49.484;11.238;2024-03-07T00:06:00;98493.69;;;4.56;100.00
63907;BME280;50075;49.484;11.238;2024-03-07T00:08:26;98491.28;;;4.63;100.00
63907;BME280;50075;49.484;11.238;2024-03-07T00:10:51;98488.16;;;4.73;100.00
63907;BME280;50075;49.484;11.238;2024-03-07T00:13:17;98494.56;;;4.57;100.00
63907;BME280;50075;49.484;11.238;2024-03-07T00:15:42;98486.97;;;4.33;100.00
63907;BME280;50075;49.484;11.238;2024-03-07T00:18:07;98490.81;;;4.46;100.00
63907;BME280;50075;49.484;11.238;2024-03-07T00:20:33;98491.25;;;4.61;100.00
63907;BME280;50075;49.484;11.238;2024-03-07T00:22:58;98489.78;;;4.40;100.00
63907;BME280;50075;49.484;11.238;2024-03-07T00:25:23;98490.53;;;4.67;100.00
63907;BME280;50075;49.484;11.238;2024-03-07T00:27:49;98497.06;;;4.54;100.00
63907;BME280;50075;49.484;11.238;2024-03-07T00:30:17;98487.50;;;4.50;100.00
63907;BME280;50075;49.484;11.238;2024-03-07T00:32:44;98484.97;;;4.84;100.00
63907;BME280;50075;49.484;11.238;2024-03-07T00:35:09;98491.94;;;4.55;100.00
63907;BME280;50075;49.484;11.238;2024-03-07T00:37:35;98482.44;;;4.85;100.00
63907;BME280;50075;49.484;11.238;2024-03-07T00:40:01;98487.31;;;5.06;100.00
63907;BME280;50075;49.484;11.238;2024-03-07T00:42:27;98479.78;;;4.82;100.00
63907;BME280;50075;49.484;11.238;2024-03-07T00:44:52;98479.56;;;5.05;100.00
63907;BME280;50075;49.484;11.238;2024-03-07T00:47:18;98479.78;;;5.14;100.00
63907;BME280;50075;49.484;11.238;2024-03-07T00:49:44;98476.22;;;5.09;100.00
63907;BME280;50075;49.484;11.238;2024-03-07T00:52:11;98468.22;;;4.98;100.00
63907;BME280;50075;49.484;11.238;2024-03-07T00:54:37;98476.41;;;5.17;100.00
63907;BME280;50075;49.484;11.238;2024-03-07T00:57:02;98470.13;;;5.07;100.00
63907;BME280;50075;49.484;11.238;2024-03-07T00:59:27;98470.66;;;5.61;100.00
63907;BME280;50075;49.484;11.238;2024-03-07T01:01:53;98471.78;;;5.74;100.00
63907;BME280;50075;49.484;11.238;2024-03-07T01:04:19;98469.41;;;5.46;100.00
63907;BME280;50075;49.484;11.238;2024-03-07T01:06:44;98471.44;;;4.91;100.00
63907;BME280;50075;49.484;11.238;2024-03-07T01:09:10;98464.22;;;5.11;100.00
63907;BME280;50075;49.484;11.238;2024-03-07T01:11:43;98467.88;;;4.24;100.00
63907;BME280;50075;49.484;11.238;2024-03-07T01:14:10;98462.16;;;4.65;100.00
63907;BME280;50075;49.484;11.238;2024-03-07T01:16:35;98466.00;;;5.14;100.00
63907;BME280;50075;49.484;11.238;2024-03-07T01:19:01;98469.53;;;5.16;100.00
63907;BME280;50075;49.484;11.238;2024-03-07T01:21:26;98469.22;;;4.73;100.00
63907;BME280;50075;49.484;11.238;2024-03-07T01:23:52;98466.31;;;4.92;100.00
63907;BME280;50075;49.484;11.238;2024-03-07T01:26:17;98460.47;;;5.00;100.00
63907;BME280;50075;49.484;11.238;2024-03-07T01:28:43;98461.34;;;5.32;100.00
63907;BME280;50075;49.484;11.238;2024-03-07T01:31:08;98459.59;;;4.65;100.00
63907;BME280;50075;49.484;11.238;2024-03-07T01:33:35;98463.03;;;4.66;100.00
63907;BME280;50075;49.484;11.238;2024-03-07T01:36:01;98453.13;;;5.14;100.00
63907;BME280;50075;49.484;11.238;2024-03-07T01:38:26;98448.25;;;4.91;100.00
63907;BME280;50075;49.484;11.238;2024-03-07T01:40:51;98442.91;;;4.52;100.00
63907;BME280;50075;49.484;11.238;2024-03-07T01:43:17;98447.94;;;4.80;100.00
63907;BME280;50075;49.484;11.238;2024-03-07T01:45:42;98445.00;;;4.98;100.00
63907;BME280;50075;49.484;11.238;2024-03-07T01:48:09;98442.22;;;5.24;100.00
63907;BME280;50075;49.484;11.238;2024-03-07T01:50:35;98440.28;;;5.15;100.00
63907;BME280;50075;49.484;11.238;2024-03-07T01:53:05;98438.81;;;4.91;100.00
63907;BME280;50075;49.484;11.238;2024-03-07T01:55:32;98435.81;;;4.76;100.00
63907;BME280;50075;49.484;11.238;2024-03-07T01:57:59;98435.56;;;4.66;100.00
63907;BME280;50075;49.484;11.238;2024-03-07T02:00:27;98429.47;;;4.64;100.00
63907;BME280;50075;49.484;11.238;2024-03-07T02:02:53;98433.69;;;4.61;100.00
63907;BME280;50075;49.484;11.238;2024-03-07T02:05:20;98428.78;;;4.38;100.00
63907;BME280;50075;49.484;11.238;2024-03-07T02:07:45;98425.81;;;4.56;100.00
63907;BME280;50075;49.484;11.238;2024-03-07T02:10:11;98422.69;;;4.36;100.00
63907;BME280;50075;49.484;11.238;2024-03-07T02:12:36;98424.09;;;4.24;100.00
63907;BME280;50075;49.484;11.238;2024-03-07T02:15:02;98425.00;;;3.97;100.00
63907;BME280;50075;49.484;11.238;2024-03-07T02:17:28;98423.84;;;3.87;100.00
63907;BME280;50075;49.484;11.238;2024-03-07T02:19:53;98414.34;;;3.85;100.00
63907;BME280;50075;49.484;11.238;2024-03-07T02:22:19;98414.88;;;4.02;100.00
63907;BME280;50075;49.484;11.238;2024-03-07T02:24:45;98420.31;;;3.84;100.00
63907;BME280;50075;49.484;11.238;2024-03-07T02:27:11;98417.94;;;3.90;100.00
63907;BME280;50075;49.484;11.238;2024-03-07T02:29:37;98414.16;;;3.78;100.00
63907;BME280;50075;49.484;11.238;2024-03-07T02:32:03;98413.78;;;3.66;100.00
63907;BME280;50075;49.484;11.238;2024-03-07T02:34:29;98406.06;;;3.66;100.00
63907;BME280;50075;49.484;11.238;2024-03-07T02:36:54;98409.09;;;3.53;100.00
63907;BME280;50075;49.484;11.238;2024-03-07T02:39:20;98407.97;;;3.44;100.00
63907;BME280;50075;49.484;11.238;2024-03-07T02:41:46;98404.09;;;3.30;100.00
63907;BME280;50075;49.484;11.238;2024-03-07T02:44:13;98397.16;;;3.29;100.00
63907;BME280;50075;49.484;11.238;2024-03-07T02:46:38;98399.38;;;3.18;100.00
63907;BME280;50075;49.484;11.238;2024-03-07T02:49:03;98402.03;;;3.19;100.00
63907;BME280;50075;49.484;11.238;2024-03-07T02:51:29;98400.09;;;3.12;100.00
63907;BME280;50075;49.484;11.238;2024-03-07T02:53:55;98397.53;;;3.12;100.00
63907;BME280;50075;49.484;11.238;2024-03-07T02:56:20;98404.41;;;3.13;100.00
63907;BME280;50075;49.484;11.238;2024-03-07T02:58:45;98394.34;;;3.21;100.00
63907;BME280;50075;49.484;11.238;2024-03-07T03:01:11;98407.69;;;3.09;100.00
63907;BME280;50075;49.484;11.238;2024-03-07T03:03:36;98406.13;;;2.88;100.00
63907;BME280;50075;49.484;11.238;2024-03-07T03:06:03;98404.19;;;3.07;100.00
63907;BME280;50075;49.484;11.238;2024-03-07T03:08:28;98400.16;;;2.89;100.00
63907;BME280;50075;49.484;11.238;2024-03-07T03:10:54;98402.69;;;2.88;100.00
63907;BME280;50075;49.484;11.238;2024-03-07T03:13:20;98408.94;;;2.70;100.00
63907;BME280;50075;49.484;11.238;2024-03-07T03:15:45;98405.88;;;2.80;100.00
63907;BME280;50075;49.484;11.238;2024-03-07T03:18:12;98410.03;;;2.77;100.00
63907;BME280;50075;49.484;11.238;2024-03-07T03:20:38;98402.22;;;2.73;100.00
63907;BME280;50075;49.484;11.238;2024-03-07T03:23:08;98406.47;;;2.73;100.00
63907;BME280;50075;49.484;11.238;2024-03-07T03:25:38;98405.50;;;2.69;100.00
63907;BME280;50075;49.484;11.238;2024-03-07T03:28:05;98404.41;;;2.87;100.00
63907;BME280;50075;49.484;11.238;2024-03-07T03:30:30;98404.81;;;2.99;100.00
63907;BME280;50075;49.484;11.238;2024-03-07T03:32:58;98405.41;;;2.92;100.00
63907;BME280;50075;49.484;11.238;2024-03-07T03:35:23;98401.59;;;2.81;100.00
63907;BME280;50075;49.484;11.238;2024-03-07T03:37:48;98400.16;;;3.15;100.00
63907;BME280;50075;49.484;11.238;2024-03-07T03:40:14;98408.91;;;3.20;100.00
63907;BME280;50075;49.484;11.238;2024-03-07T03:42:40;98406.13;;;3.40;100.00
63907;BME280;50075;49.484;11.238;2024-03-07T03:45:07;98405.59;;;3.24;100.00
63907;BME280;50075;49.484;11.238;2024-03-07T03:47:37;98403.75;;;3.19;100.00
63907;BME280;50075;49.484;11.238;2024-03-07T03:52:29;98409.22;;;3.30;100.00
63907;BME280;50075;49.484;11.238;2024-03-07T03:54:55;98397.38;;;3.35;100.00
63907;BME280;50075;49.484;11.238;2024-03-07T03:57:22;98399.19;;;3.65;100.00
63907;BME280;50075;49.484;11.238;2024-03-07T03:59:47;98402.63;;;3.38;100.00
63907;BME280;50075;49.484;11.238;2024-03-07T04:02:13;98391.84;;;3.50;100.00
63907;BME280;50075;49.484;11.238;2024-03-07T04:04:42;98400.53;;;3.54;100.00
63907;BME280;50075;49.484;11.238;2024-03-07T04:07:07;98392.38;;;3.39;100.00
63907;BME280;50075;49.484;11.238;2024-03-07T04:09:32;98394.47;;;3.51;100.00
63907;BME280;50075;49.484;11.238;2024-03-07T04:11:58;98400.47;;;3.80;100.00
63907;BME280;50075;49.484;11.238;2024-03-07T04:14:24;98398.13;;;3.87;100.00
63907;BME280;50075;49.484;11.238;2024-03-07T04:16:50;98397.56;;;4.27;100.00
63907;BME280;50075;49.484;11.238;2024-03-07T04:19:15;98400.00;;;4.53;100.00
63907;BME280;50075;49.484;11.238;2024-03-07T04:21:40;98400.81;;;4.21;100.00
63907;BME280;50075;49.484;11.238;2024-03-07T04:24:07;98399.81;;;4.47;100.00
63907;BME280;50075;49.484;11.238;2024-03-07T04:26:32;98404.59;;;4.65;100.00
63907;BME280;50075;49.484;11.238;2024-03-07T04:28:57;98395.13;;;4.64;100.00
63907;BME280;50075;49.484;11.238;2024-03-07T04:31:23;98404.75;;;4.71;100.00
63907;BME280;50075;49.484;11.238;2024-03-07T04:33:48;98401.69;;;4.52;100.00
63907;BME280;50075;49.484;11.238;2024-03-07T04:36:14;98400.06;;;4.88;100.00
63907;BME280;50075;49.484;11.238;2024-03-07T04:38:39;98406.78;;;3.89;100.00
63907;BME280;50075;49.484;11.238;2024-03-07T04:41:11;98403.81;;;4.37;100.00
63907;BME280;50075;49.484;11.238;2024-03-07T04:43:36;98404.75;;;4.71;100.00
63907;BME280;50075;49.484;11.238;2024-03-07T04:46:02;98405.59;;;4.38;100.00
63907;BME280;50075;49.484;11.238;2024-03-07T04:48:27;98405.44;;;4.33;100.00
63907;BME280;50075;49.484;11.238;2024-03-07T04:50:53;98413.78;;;4.55;100.00
63907;BME280;50075;49.484;11.238;2024-03-07T04:53:18;98413.28;;;4.36;100.00
63907;BME280;50075;49.484;11.238;2024-03-07T04:55:43;98411.25;;;4.26;100.00
63907;BME280;50075;49.484;11.238;2024-03-07T04:58:08;98410.25;;;3.91;100.00
63907;BME280;50075;49.484;11.238;2024-03-07T05:00:34;98412.88;;;3.10;100.00
63907;BME280;50075;49.484;11.238;2024-03-07T05:02:59;98418.03;;;3.93;100.00
63907;BME280;50075;49.484;11.238;2024-03-07T05:05:25;98412.75;;;4.19;100.00
63907;BME280;50075;49.484;11.238;2024-03-07T05:07:52;98411.66;;;4.11;100.00
63907;BME280;50075;49.484;11.238;2024-03-07T05:10:17;98424.28;;;3.72;100.00
63907;BME280;50075;49.484;11.238;2024-03-07T05:12:43;98412.88;;;3.64;100.00
63907;BME280;50075;49.484;11.238;2024-03-07T05:15:08;98416.84;;;3.82;100.00
63907;BME280;50075;49.484;11.238;2024-03-07T05:17:37;98411.25;;;3.68;100.00
63907;BME280;50075;49.484;11.238;2024-03-07T05:20:05;98416.00;;;3.83;100.00
63907;BME280;50075;49.484;11.238;2024-03-07T05:22:36;98416.13;;;4.16;100.00
63907;BME280;50075;49.484;11.238;2024-03-07T05:25:06;98415.53;;;4.25;100.00
63907;BME280;50075;49.484;11.238;2024-03-07T05:27:31;98425.16;;;4.33;100.00
63907;BME280;50075;49.484;11.238;2024-03-07T05:29:58;98423.53;;;4.35;100.00
63907;BME280;50075;49.484;11.238;2024-03-07T05:32:25;98433.56;;;3.96;100.00
63907;BME280;50075;49.484;11.238;2024-03-07T05:34:51;98429.44;;;3.46;100.00
63907;BME280;50075;49.484;11.238;2024-03-07T05:37:19;98424.59;;;3.28;100.00
63907;BME280;50075;49.484;11.238;2024-03-07T05:39:47;98427.28;;;2.79;100.00
63907;BME280;50075;49.484;11.238;2024-03-07T05:42:12;98426.22;;;2.74;100.00
63907;BME280;50075;49.484;11.238;2024-03-07T05:44:40;98430.19;;;3.42;100.00
63907;BME280;50075;49.484;11.238;2024-03-07T05:47:06;98424.56;;;3.82;100.00
63907;BME280;50075;49.484;11.238;2024-03-07T05:49:32;98424.63;;;3.85;100.00
63907;BME280;50075;49.484;11.238;2024-03-07T05:51:58;98431.00;;;3.69;100.00
63907;BME280;50075;49.484;11.238;2024-03-07T05:54:23;98430.28;;;3.73;100.00
63907;BME280;50075;49.484;11.238;2024-03-07T05:56:48;98428.25;;;3.90;100.00
63907;BME280;50075;49.484;11.238;2024-03-07T05:59:15;98425.91;;;4.59;100.00
63907;BME280;50075;49.484;11.238;2024-03-07T06:01:42;98420.97;;;4.67;100.00
63907;BME280;50075;49.484;11.238;2024-03-07T06:04:09;98423.53;;;4.67;100.00
63907;BME280;50075;49.484;11.238;2024-03-07T06:06:36;98417.84;;;4.47;100.00
63907;BME280;50075;49.484;11.238;2024-03-07T06:09:03;98413.22;;;4.35;100.00
63907;BME280;50075;49.484;11.238;2024-03-07T06:11:39;98415.44;;;4.22;100.00
63907;BME280;50075;49.484;11.238;2024-03-07T06:14:07;98418.03;;;3.93;100.00
63907;BME280;50075;49.484;11.238;2024-03-07T06:16:35;98421.25;;;3.86;100.00
63907;BME280;50075;49.484;11.238;2024-03-07T06:19:02;98412.81;;;4.51;100.00
63907;BME280;50075;49.484;11.238;2024-03-07T06:21:28;98414.66;;;4.25;100.00
63907;BME280;50075;49.484;11.238;2024-03-07T06:23:54;98422.72;;;4.68;100.00
63907;BME280;50075;49.484;11.238;2024-03-07T06:26:35;98423.53;;;4.67;100.00
63907;BME280;50075;49.484;11.238;2024-03-07T06:29:10;98423.09;;;5.51;100.00
63907;BME280;50075;49.484;11.238;2024-03-07T06:31:38;98413.66;;;5.53;100.00
63907;BME280;50075;49.484;11.238;2024-03-07T06:34:04;98413.00;;;5.60;100.00
63907;BME280;50075;49.484;11.238;2024-03-07T06:36:29;98418.16;;;5.25;100.00
63907;BME280;50075;49.484;11.238;2024-03-07T06:38:55;98420.72;;;5.60;100.00
63907;BME280;50075;49.484;11.238;2024-03-07T06:41:20;98412.09;;;5.58;100.00
63907;BME280;50075;49.484;11.238;2024-03-07T06:43:46;98418.75;;;5.15;100.00
63907;BME280;50075;49.484;11.238;2024-03-07T06:46:11;98420.47;;;4.80;100.00
63907;BME280;50075;49.484;11.238;2024-03-07T06:48:38;98421.88;;;5.37;100.00
63907;BME280;50075;49.484;11.238;2024-03-07T06:51:05;98422.53;;;5.28;100.00
63907;BME280;50075;49.484;11.238;2024-03-07T06:53:30;98421.25;;;5.45;100.00
63907;BME280;50075;49.484;11.238;2024-03-07T06:55:56;98418.00;;;5.19;100.00
63907;BME280;50075;49.484;11.238;2024-03-07T06:58:21;98423.97;;;4.82;100.00
63907;BME280;50075;49.484;11.238;2024-03-07T07:00:48;98427.63;;;6.00;100.00
63907;BME280;50075;49.484;11.238;2024-03-07T07:03:14;98427.72;;;6.45;100.00
63907;BME280;50075;49.484;11.238;2024-03-07T07:05:40;98424.00;;;5.53;100.00
63907;BME280;50075;49.484;11.238;2024-03-07T07:08:10;98426.19;;;5.73;100.00
63907;BME280;50075;49.484;11.238;2024-03-07T07:10:36;98433.78;;;6.45;100.00
63907;BME280;50075;49.484;11.238;2024-03-07T07:13:02;98437.34;;;8.71;100.00
63907;BME280;50075;49.484;11.238;2024-03-07T07:15:29;98446.47;;;10.40;100.00
63907;BME280;50075;49.484;11.238;2024-03-07T07:17:55;98448.81;;;9.93;100.00
63907;BME280;50075;49.484;11.238;2024-03-07T07:20:20;98430.88;;;9.17;100.00
63907;BME280;50075;49.484;11.238;2024-03-07T07:22:46;98431.50;;;8.91;100.00
63907;BME280;50075;49.484;11.238;2024-03-07T07:25:16;98428.50;;;11.21;100.00
63907;BME280;50075;49.484;11.238;2024-03-07T07:27:45;98399.78;;;12.02;100.00
63907;BME280;50075;49.484;11.238;2024-03-07T07:30:12;98394.13;;;13.08;100.00
63907;BME280;50075;49.484;11.238;2024-03-07T07:32:38;98378.94;;;13.60;100.00
63907;BME280;50075;49.484;11.238;2024-03-07T07:35:05;98371.50;;;17.48;100.00
63907;BME280;50075;49.484;11.238;2024-03-07T07:37:50;98367.41;;;17.36;83.98
63907;BME280;50075;49.484;11.238;2024-03-07T07:40:18;98367.03;;;18.18;57.46
63907;BME280;50075;49.484;11.238;2024-03-07T07:42:44;98369.44;;;18.26;53.23
63907;BME280;50075;49.484;11.238;2024-03-07T07:45:12;98365.44;;;18.73;50.31
63907;BME280;50075;49.484;11.238;2024-03-07T07:47:42;98358.38;;;21.25;70.72
63907;BME280;50075;49.484;11.238;2024-03-07T07:50:10;98362.69;;;21.28;49.04
63907;BME280;50075;49.484;11.238;2024-03-07T07:55:08;98350.28;;;19.37;44.71
63907;BME280;50075;49.484;11.238;2024-03-07T07:57:43;98359.28;;;21.67;46.49
63907;BME280;50075;49.484;11.238;2024-03-07T08:00:16;98353.44;;;21.38;50.59
63907;BME280;50075;49.484;11.238;2024-03-07T08:02:52;98365.28;;;15.88;48.80
63907;BME280;50075;49.484;11.238;2024-03-07T08:05:19;98366.81;;;14.33;72.78
63907;BME280;50075;49.484;11.238;2024-03-07T08:07:46;98362.28;;;14.44;98.41
63907;BME280;50075;49.484;11.238;2024-03-07T08:10:13;98366.53;;;12.67;74.71
63907;BME280;50075;49.484;11.238;2024-03-07T08:12:39;98372.84;;;12.14;99.45
63907;BME280;50075;49.484;11.238;2024-03-07T08:15:06;98369.38;;;12.07;94.04
63907;BME280;50075;49.484;11.238;2024-03-07T08:17:31;98362.47;;;10.60;91.99
63907;BME280;50075;49.484;11.238;2024-03-07T08:19:57;98370.75;;;9.79;100.00
63907;BME280;50075;49.484;11.238;2024-03-07T08:22:22;98374.59;;;10.47;100.00
63907;BME280;50075;49.484;11.238;2024-03-07T08:24:49;98362.16;;;9.85;100.00
63907;BME280;50075;49.484;11.238;2024-03-07T08:27:15;98362.31;;;10.25;100.00
63907;BME280;50075;49.484;11.238;2024-03-07T08:29:40;98369.97;;;9.89;100.00
63907;BME280;50075;49.484;11.238;2024-03-07T08:32:06;98364.47;;;9.41;100.00
63907;BME280;50075;49.484;11.238;2024-03-07T08:34:31;98364.34;;;9.25;100.00
63907;BME280;50075;49.484;11.238;2024-03-07T08:36:57;98360.31;;;9.63;100.00
63907;BME280;50075;49.484;11.238;2024-03-07T08:39:22;98366.16;;;9.36;100.00
63907;BME280;50075;49.484;11.238;2024-03-07T08:41:48;98357.63;;;9.53;100.00
63907;BME280;50075;49.484;11.238;2024-03-07T08:44:13;98360.41;;;9.84;100.00
63907;BME280;50075;49.484;11.238;2024-03-07T08:46:39;98359.66;;;10.08;100.00
63907;BME280;50075;49.484;11.238;2024-03-07T08:49:04;98365.38;;;9.46;100.00
63907;BME280;50075;49.484;11.238;2024-03-07T08:51:30;98366.47;;;9.81;100.00
63907;BME280;50075;49.484;11.238;2024-03-07T08:53:56;98365.06;;;9.07;100.00
63907;BME280;50075;49.484;11.238;2024-03-07T08:56:21;98358.72;;;9.95;100.00
63907;BME280;50075;49.484;11.238;2024-03-07T08:58:47;98364.50;;;9.44;100.00
63907;BME280;50075;49.484;11.238;2024-03-07T09:01:12;98367.22;;;9.63;100.00
63907;BME280;50075;49.484;11.238;2024-03-07T09:03:38;98356.06;;;9.80;100.00
63907;BME280;50075;49.484;11.238;2024-03-07T09:06:03;98363.81;;;8.68;100.00
63907;BME280;50075;49.484;11.238;2024-03-07T09:08:29;98360.13;;;9.38;100.00
63907;BME280;50075;49.484;11.238;2024-03-07T09:10:54;98356.97;;;9.86;100.00
63907;BME280;50075;49.484;11.238;2024-03-07T09:13:21;98364.72;;;9.83;100.00
63907;BME280;50075;49.484;11.238;2024-03-07T09:15:46;98359.53;;;9.83;100.00
63907;BME280;50075;49.484;11.238;2024-03-07T09:18:12;98359.88;;;9.07;100.00
63907;BME280;50075;49.484;11.238;2024-03-07T09:20:38;98358.63;;;9.75;100.00
63907;BME280;50075;49.484;11.238;2024-03-07T09:23:03;98363.59;;;9.37;100.00
63907;BME280;50075;49.484;11.238;2024-03-07T09:25:29;98357.63;;;9.53;100.00
63907;BME280;50075;49.484;11.238;2024-03-07T09:27:58;98354.31;;;9.82;100.00
63907;BME280;50075;49.484;11.238;2024-03-07T09:30:25;98352.66;;;9.93;100.00
63907;BME280;50075;49.484;11.238;2024-03-07T09:32:52;98361.81;;;9.33;100.00
63907;BME280;50075;49.484;11.238;2024-03-07T09:35:20;98353.25;;;8.52;100.00
63907;BME280;50075;49.484;11.238;2024-03-07T09:37:46;98364.44;;;8.48;100.00
63907;BME280;50075;49.484;11.238;2024-03-07T09:40:12;98354.69;;;9.09;100.00
63907;BME280;50075;49.484;11.238;2024-03-07T09:42:44;98343.53;;;9.18;100.00
63907;BME280;50075;49.484;11.238;2024-03-07T09:45:14;98358.31;;;9.27;100.00
63907;BME280;50075;49.484;11.238;2024-03-07T09:47:40;98360.81;;;9.14;100.00
63907;BME280;50075;49.484;11.238;2024-03-07T09:50:05;98352.66;;;8.75;100.00
63907;BME280;50075;49.484;11.238;2024-03-07T09:52:33;98352.13;;;9.12;100.00
63907;BME280;50075;49.484;11.238;2024-03-07T09:55:01;98348.00;;;9.39;100.00
63907;BME280;50075;49.484;11.238;2024-03-07T09:57:29;98347.06;;;9.28;100.00
63907;BME280;50075;49.484;11.238;2024-03-07T09:59:57;98354.25;;;9.64;100.00
63907;BME280;50075;49.484;11.238;2024-03-07T10:02:25;98347.09;;;8.42;100.00
63907;BME280;50075;49.484;11.238;2024-03-07T10:04:53;98340.97;;;8.36;100.00
63907;BME280;50075;49.484;11.238;2024-03-07T10:07:21;98336.22;;;8.71;100.00
63907;BME280;50075;49.484;11.238;2024-03-07T10:09:47;98351.63;;;7.88;100.00
63907;BME280;50075;49.484;11.238;2024-03-07T10:12:12;98342.78;;;7.72;100.00
63907;BME280;50075;49.484;11.238;2024-03-07T10:14:38;98349.63;;;7.11;100.00
63907;BME280;50075;49.484;11.238;2024-03-07T10:17:04;98347.84;;;7.07;100.00
63907;BME280;50075;49.484;11.238;2024-03-07T10:19:30;98341.56;;;7.45;100.00
63907;BME280;50075;49.484;11.238;2024-03-07T10:21:56;98336.59;;;7.60;100.00
63907;BME280;50075;49.484;11.238;2024-03-07T10:24:26;98340.59;;;7.39;100.00
63907;BME280;50075;49.484;11.238;2024-03-07T10:26:53;98340.59;;;7.39;100.00
63907;BME280;50075;49.484;11.238;2024-03-07T10:29:21;98343.56;;;7.07;100.00
63907;BME280;50075;49.484;11.238;2024-03-07T10:31:49;98342.13;;;7.87;100.00
63907;BME280;50075;49.484;11.238;2024-03-07T10:34:15;98328.19;;;8.51;100.00
63907;BME280;50075;49.484;11.238;2024-03-07T10:36:42;98338.88;;;8.79;100.00
63907;BME280;50075;49.484;11.238;2024-03-07T10:39:08;98335.28;;;8.65;100.00
63907;BME280;50075;49.484;11.238;2024-03-07T10:41:45;98332.88;;;8.85;100.00
63907;BME280;50075;49.484;11.238;2024-03-07T10:44:11;98328.75;;;9.12;100.00
63907;BME280;50075;49.484;11.238;2024-03-07T10:46:44;98333.78;;;8.92;100.00
63907;BME280;50075;49.484;11.238;2024-03-07T10:49:15;98329.59;;;9.05;100.00
63907;BME280;50075;49.484;11.238;2024-03-07T10:51:46;98325.97;;;8.87;100.00
63907;BME280;50075;49.484;11.238;2024-03-07T10:54:22;98324.63;;;9.39;100.00
63907;BME280;50075;49.484;11.238;2024-03-07T10:59:17;98323.69;;;9.26;100.00
63907;BME280;50075;49.484;11.238;2024-03-07T11:01:53;98316.34;;;10.12;100.00
63907;BME280;50075;49.484;11.238;2024-03-07T11:04:22;98317.28;;;10.31;100.00
63907;BME280;50075;49.484;11.238;2024-03-07T11:06:49;98302.66;;;10.81;100.00
63907;BME280;50075;49.484;11.238;2024-03-07T11:09:15;98306.13;;;10.60;100.00
63907;BME280;50075;49.484;11.238;2024-03-07T11:11:48;98297.44;;;11.36;100.00
63907;BME280;50075;49.484;11.238;2024-03-07T11:14:14;98295.72;;;11.15;89.92
63907;BME280;50075;49.484;11.238;2024-03-07T11:16:42;98300.00;;;11.66;94.93
63907;BME280;50075;49.484;11.238;2024-03-07T11:19:28;98294.84;;;11.45;90.74
63907;BME280;50075;49.484;11.238;2024-03-07T11:21:55;98293.09;;;11.49;83.04
63907;BME280;50075;49.484;11.238;2024-03-07T11:24:28;98285.28;;;11.40;79.35
63907;BME280;50075;49.484;11.238;2024-03-07T11:26:56;98284.38;;;11.63;84.11
63907;BME280;50075;49.484;11.238;2024-03-07T11:29:48;98287.03;;;11.16;85.51
63907;BME280;50075;49.484;11.238;2024-03-07T11:32:18;98292.25;;;11.28;78.60
63907;BME280;50075;49.484;11.238;2024-03-07T11:34:47;98275.72;;;11.43;78.24
63907;BME280;50075;49.484;11.238;2024-03-07T11:37:38;98272.94;;;12.00;82.25
63907;BME280;50075;49.484;11.238;2024-03-07T11:40:42;98276.56;;;11.53;76.32
63907;BME280;50075;49.484;11.238;2024-03-07T11:43:01;98270.25;;;12.18;87.18
63907;BME280;50075;49.484;11.238;2024-03-07T11:45:30;98264.44;;;11.52;80.62
63907;BME280;50075;49.484;11.238;2024-03-07T11:48:00;98263.44;;;11.83;86.34
63907;BME280;50075;49.484;11.238;2024-03-07T11:50:26;98271.38;;;11.58;86.45
63907;BME280;50075;49.484;11.238;2024-03-07T11:52:53;98261.03;;;11.20;90.36
63907;BME280;50075;49.484;11.238;2024-03-07T11:55:20;98258.44;;;10.53;80.48
63907;BME280;50075;49.484;11.238;2024-03-07T11:57:47;98259.31;;;10.73;81.79
63907;BME280;50075;49.484;11.238;2024-03-07T12:00:14;98256.69;;;10.51;95.15
63907;BME280;50075;49.484;11.238;2024-03-07T12:02:40;98257.56;;;10.54;92.54
63907;BME280;50075;49.484;11.238;2024-03-07T12:05:06;98252.34;;;10.62;85.53
63907;BME280;50075;49.484;11.238;2024-03-07T12:07:32;98249.78;;;10.58;92.21
63907;BME280;50075;49.484;11.238;2024-03-07T12:09:59;98257.56;;;10.45;93.04
63907;BME280;50075;49.484;11.238;2024-03-07T12:12:25;98254.81;;;10.08;100.00
63907;BME280;50075;49.484;11.238;2024-03-07T12:14:53;98238.41;;;10.18;100.00
63907;BME280;50075;49.484;11.238;2024-03-07T12:17:19;98237.56;;;10.21;100.00
63907;BME280;50075;49.484;11.238;2024-03-07T12:19:46;98235.88;;;10.49;97.36
63907;BME280;50075;49.484;11.238;2024-03-07T12:22:12;98242.72;;;10.08;99.65
63907;BME280;50075;49.484;11.238;2024-03-07T12:24:41;98241.78;;;9.95;99.50
63907;BME280;50075;49.484;11.238;2024-03-07T12:27:11;98238.41;;;10.23;100.00
63907;BME280;50075;49.484;11.238;2024-03-07T12:29:38;98228.03;;;10.34;100.00
63907;BME280;50075;49.484;11.238;2024-03-07T12:32:07;98229.81;;;10.50;100.00
63907;BME280;50075;49.484;11.238;2024-03-07T12:34:34;98223.75;;;10.67;100.00
63907;BME280;50075;49.484;11.238;2024-03-07T12:37:03;98217.69;;;10.96;98.27
63907;BME280;50075;49.484;11.238;2024-03-07T12:39:32;98226.34;;;10.84;100.00
63907;BME280;50075;49.484;11.238;2024-03-07T12:42:04;98217.69;;;10.46;100.00
63907;BME280;50075;49.484;11.238;2024-03-07T12:44:46;98218.50;;;10.39;90.38
63907;BME280;50075;49.484;11.238;2024-03-07T12:47:15;98216.75;;;10.36;100.00
63907;BME280;50075;49.484;11.238;2024-03-07T12:49:41;98213.28;;;10.25;100.00
63907;BME280;50075;49.484;11.238;2024-03-07T12:52:07;98225.41;;;10.32;100.00
63907;BME280;50075;49.484;11.238;2024-03-07T12:54:34;98219.31;;;10.00;100.00
63907;BME280;50075;49.484;11.238;2024-03-07T12:57:00;98222.81;;;10.21;100.00